Time;durP1;ratioP1;P1;durP2;ratioP2;P2;SDS_P1;SDS_P2;PMS_P1;PMS_P2;Temp;Humidity;BMP_temperature;BMP_pressure;BME280_temperature;BME280_humidity;BME280_pressure;Samples;Min_cycle;Max_cycle;Signal;HPM_P1;HPM_P2
2022/03/18 00:02:17;;;;;;;31.02;22.38;;;12.40;99.90;;;;;;5040311;28;20030;-72
2022/03/18 00:04:43;;;;;;;22.02;16.90;;;12.40;99.90;;;;;;5045753;28;20407;-71
2022/03/18 00:07:09;;;;;;;25.70;22.95;;;12.30;99.90;;;;;;5044564;28;20029;-71
2022/03/18 00:09:35;;;;;;;32.33;24.08;;;12.30;99.90;;;;;;5041076;28;20037;-71
2022/03/18 00:12:00;;;;;;;30.70;23.38;;;12.30;99.90;;;;;;5040781;28;20025;-72
2022/03/18 00:14:26;;;;;;;39.50;24.48;;;12.30;99.90;;;;;;5039567;28;20079;-71
2022/03/18 00:16:52;;;;;;;25.38;21.58;;;12.20;99.90;;;;;;5038785;28;20037;-72
2022/03/18 00:19:18;;;;;;;30.00;22.92;;;12.20;99.90;;;;;;5050135;28;20033;-71
2022/03/18 00:21:44;;;;;;;31.25;24.00;;;12.20;99.90;;;;;;5050258;28;20037;-72
2022/03/18 00:24:09;;;;;;;28.55;22.75;;;12.20;99.90;;;;;;5050126;28;20079;-72
2022/03/18 00:26:36;;;;;;;34.67;21.63;;;12.10;99.90;;;;;;5049043;28;20037;-74
2022/03/18 00:29:02;;;;;;;25.75;21.38;;;12.10;99.90;;;;;;5052562;28;20119;-73
2022/03/18 00:31:29;;;;;;;27.65;21.90;;;12.00;99.90;;;;;;5052301;28;20377;-73
2022/03/18 00:33:55;;;;;;;32.40;21.20;;;12.00;99.90;;;;;;5050943;28;20116;-71
2022/03/18 00:36:20;;;;;;;30.20;21.92;;;12.00;99.90;;;;;;5048953;28;20057;-71
2022/03/18 00:38:46;;;;;;;35.08;20.77;;;11.90;99.90;;;;;;5053371;28;20086;-72
2022/03/18 00:41:12;;;;;;;28.63;22.77;;;12.00;99.90;;;;;;5047111;28;20479;-73
2022/03/18 00:43:39;;;;;;;31.38;24.20;;;11.90;99.90;;;;;;5052397;28;20029;-72
2022/03/18 00:46:06;;;;;;;25.02;22.33;;;11.90;99.90;;;;;;5053332;28;20056;-71
2022/03/18 00:54:00;;;;;;;30.80;21.88;;;11.90;99.90;;;;;;5053014;28;20036;-71
2022/03/18 00:56:26;;;;;;;26.23;20.77;;;11.80;99.90;;;;;;5052116;28;20029;-71
2022/03/18 00:58:52;;;;;;;30.67;24.02;;;11.90;99.90;;;;;;5047134;28;20025;-72
2022/03/18 01:01:18;;;;;;;31.30;20.23;;;11.80;99.90;;;;;;5052763;28;20021;-72
2022/03/18 01:03:43;;;;;;;30.77;23.48;;;11.80;99.90;;;;;;5051497;28;20021;-71
2022/03/18 01:06:09;;;;;;;39.88;24.10;;;11.80;99.90;;;;;;5052952;28;20052;-73
2022/03/18 01:08:35;;;;;;;25.48;20.23;;;11.80;99.90;;;;;;5051693;28;20547;-72
2022/03/18 01:11:03;;;;;;;30.45;23.33;;;11.70;99.90;;;;;;5052583;28;20037;-71
2022/03/18 01:13:28;;;;;;;30.50;22.88;;;11.70;99.90;;;;;;5051199;28;20033;-71
2022/03/18 01:15:54;;;;;;;28.95;23.23;;;11.60;99.90;;;;;;5045521;28;20075;-71
2022/03/18 01:18:20;;;;;;;27.15;23.20;;;11.60;99.90;;;;;;5040102;28;20039;-71
2022/03/18 01:20:46;;;;;;;28.83;22.50;;;11.60;99.90;;;;;;5043529;28;20079;-71
2022/03/18 01:23:11;;;;;;;30.63;23.48;;;11.60;99.90;;;;;;5040885;28;20116;-71
2022/03/18 01:25:37;;;;;;;27.63;22.63;;;11.60;99.90;;;;;;5047913;28;20072;-72
2022/03/18 01:28:04;;;;;;;26.83;23.40;;;11.60;99.90;;;;;;5045775;28;20095;-70
2022/03/18 01:30:30;;;;;;;25.88;20.60;;;11.60;99.90;;;;;;5046068;28;20074;-70
2022/03/18 01:33:00;;;;;;;24.13;20.73;;;11.50;99.90;;;;;;5051070;28;20025;-72
2022/03/18 01:35:26;;;;;;;25.60;22.35;;;11.60;99.90;;;;;;5041014;28;20033;-71
2022/03/18 01:37:52;;;;;;;22.83;20.08;;;11.60;99.90;;;;;;5047553;28;20037;-71
2022/03/18 01:40:18;;;;;;;27.15;20.75;;;11.50;99.90;;;;;;5041343;28;20032;-71
2022/03/18 01:42:43;;;;;;;30.33;23.58;;;11.50;99.90;;;;;;5038974;28;20103;-71
2022/03/18 01:45:09;;;;;;;26.23;23.17;;;11.50;99.90;;;;;;5046284;28;20180;-71
2022/03/18 01:47:35;;;;;;;34.10;23.50;;;11.50;99.90;;;;;;5044840;28;20021;-71
2022/03/18 01:50:01;;;;;;;28.02;22.55;;;11.50;99.90;;;;;;5039969;28;20159;-71
2022/03/18 01:52:27;;;;;;;30.17;23.20;;;11.50;99.90;;;;;;5047446;28;20510;-71
2022/03/18 01:54:54;;;;;;;27.15;19.85;;;11.50;99.90;;;;;;5042455;28;20403;-71
2022/03/18 01:57:22;;;;;;;32.33;23.67;;;11.50;99.90;;;;;;5043298;28;20025;-71
2022/03/18 01:59:49;;;;;;;26.25;21.23;;;11.50;99.90;;;;;;5040225;28;20028;-71
2022/03/18 02:02:16;;;;;;;26.02;20.60;;;11.50;99.90;;;;;;5040478;28;20033;-71
2022/03/18 02:04:43;;;;;;;22.65;18.38;;;11.50;99.90;;;;;;5047357;28;20447;-71
2022/03/18 02:07:09;;;;;;;30.15;20.35;;;11.50;99.90;;;;;;5046133;28;20028;-70
2022/03/18 02:09:36;;;;;;;26.48;20.60;;;11.50;99.90;;;;;;5041220;28;20039;-72
2022/03/18 02:12:02;;;;;;;23.98;19.15;;;11.50;99.90;;;;;;5046210;28;20028;-71
2022/03/18 02:14:32;;;;;;;30.73;21.80;;;11.40;99.90;;;;;;5045443;28;20509;-71
2022/03/18 02:16:58;;;;;;;21.35;17.83;;;11.50;99.90;;;;;;5043032;28;20029;-72
2022/03/18 02:19:23;;;;;;;26.42;19.50;;;11.50;99.90;;;;;;5040599;28;20380;-71
2022/03/18 02:21:53;;;;;;;24.83;17.70;;;11.40;99.90;;;;;;5048092;28;20037;-71
2022/03/18 02:24:20;;;;;;;24.17;19.38;;;11.40;99.90;;;;;;5044442;28;20128;-71
2022/03/18 02:26:53;;;;;;;28.27;20.33;;;11.50;99.90;;;;;;5043599;28;20036;-71
2022/03/18 02:29:21;;;;;;;26.67;19.02;;;11.40;99.90;;;;;;5044910;28;20028;-70
2022/03/18 02:31:47;;;;;;;21.60;17.02;;;11.50;99.90;;;;;;5043414;28;20029;-72
2022/03/18 02:34:14;;;;;;;24.17;19.45;;;11.50;99.90;;;;;;5044061;28;20025;-72
2022/03/18 02:36:40;;;;;;;29.40;21.33;;;11.40;99.90;;;;;;5042519;28;20021;-73
2022/03/18 02:39:06;;;;;;;24.98;21.90;;;11.40;99.90;;;;;;5044528;28;20022;-72
2022/03/18 02:41:34;;;;;;;27.17;20.65;;;11.30;99.90;;;;;;5049918;28;20097;-73
2022/03/18 02:44:00;;;;;;;31.70;20.83;;;11.30;99.90;;;;;;5044046;28;20087;-71
2022/03/18 02:46:26;;;;;;;24.63;19.85;;;11.30;99.90;;;;;;5044939;28;20029;-71
2022/03/18 02:48:52;;;;;;;22.85;20.13;;;11.30;99.90;;;;;;5044071;28;20025;-71
2022/03/18 02:51:18;;;;;;;28.55;21.63;;;11.30;99.90;;;;;;5045351;28;20108;-72
2022/03/18 02:53:44;;;;;;;24.42;18.40;;;11.30;99.90;;;;;;5040037;28;20630;-70
2022/03/18 02:56:10;;;;;;;22.42;19.40;;;11.30;99.90;;;;;;5038626;28;20029;-71
2022/03/18 02:58:36;;;;;;;29.95;20.25;;;11.30;99.90;;;;;;5045497;28;20027;-69
2022/03/18 03:01:02;;;;;;;27.88;19.40;;;11.30;99.90;;;;;;5046747;28;20094;-72
2022/03/18 03:03:29;;;;;;;29.00;21.73;;;11.30;99.90;;;;;;5044458;28;20029;-72
2022/03/18 03:08:40;;;;;;;23.85;19.58;;;11.30;99.90;;;;;;5041234;28;20089;-72
2022/03/18 03:11:06;;;;;;;23.13;15.88;;;11.30;99.90;;;;;;5047149;28;20024;-72
2022/03/18 03:13:32;;;;;;;25.70;17.70;;;11.30;99.90;;;;;;5040561;28;20557;-74
2022/03/18 03:15:59;;;;;;;23.00;19.27;;;11.30;99.90;;;;;;5042002;28;20044;-71
2022/03/18 03:18:25;;;;;;;32.05;18.75;;;11.30;99.90;;;;;;5036797;28;20040;-70
2022/03/18 03:20:51;;;;;;;23.00;17.40;;;11.30;99.90;;;;;;5039313;28;20139;-71
2022/03/18 03:23:18;;;;;;;24.95;20.83;;;11.30;99.90;;;;;;5044103;28;20025;-73
2022/03/18 03:25:44;;;;;;;25.95;19.20;;;11.30;99.90;;;;;;5044382;28;20049;-71
2022/03/18 03:28:10;;;;;;;24.67;19.75;;;11.30;99.90;;;;;;5038132;28;20037;-70
2022/03/18 03:30:36;;;;;;;23.40;18.27;;;11.30;99.90;;;;;;5043916;28;20368;-71
2022/03/18 03:33:02;;;;;;;19.40;17.08;;;11.30;99.90;;;;;;5038800;28;20387;-70
2022/03/18 03:35:27;;;;;;;25.48;18.10;;;11.30;99.90;;;;;;5040755;28;20083;-71
2022/03/18 03:37:53;;;;;;;25.38;20.02;;;11.30;99.90;;;;;;5040421;28;20033;-71
2022/03/18 03:40:19;;;;;;;28.58;19.85;;;11.30;99.90;;;;;;5041884;28;20029;-72
2022/03/18 03:42:48;;;;;;;24.20;20.08;;;11.30;99.90;;;;;;5042854;28;20044;-72
2022/03/18 03:45:14;;;;;;;20.50;18.38;;;11.20;99.90;;;;;;5040903;28;20032;-74
2022/03/18 03:47:41;;;;;;;24.30;18.45;;;11.20;99.90;;;;;;5039335;28;20025;-71
2022/03/18 03:50:09;;;;;;;19.85;16.70;;;11.20;99.90;;;;;;5041076;28;20040;-71
2022/03/18 03:52:35;;;;;;;22.67;17.88;;;11.30;99.90;;;;;;5039376;28;20079;-71
2022/03/18 03:55:05;;;;;;;21.63;18.08;;;11.20;99.90;;;;;;5041502;28;20022;-71
2022/03/18 03:57:31;;;;;;;27.08;16.02;;;11.20;99.90;;;;;;5042553;28;20395;-71
2022/03/18 03:59:56;;;;;;;23.08;17.08;;;11.20;99.90;;;;;;5041304;28;20025;-71
2022/03/18 04:02:23;;;;;;;19.70;16.25;;;11.30;99.90;;;;;;5037226;28;20029;-70
2022/03/18 04:04:49;;;;;;;22.08;16.88;;;11.20;99.90;;;;;;5044691;28;20458;-71
2022/03/18 04:07:15;;;;;;;19.80;13.70;;;11.20;99.90;;;;;;5042943;28;20017;-71
2022/03/18 04:09:41;;;;;;;16.17;14.48;;;11.20;99.90;;;;;;5040792;28;20104;-71
2022/03/18 04:12:07;;;;;;;34.88;14.68;;;11.20;99.90;;;;;;5040709;28;20025;-70
2022/03/18 04:14:33;;;;;;;27.67;14.95;;;11.20;99.90;;;;;;5039825;28;20507;-73
2022/03/18 04:16:59;;;;;;;23.45;13.55;;;11.20;99.90;;;;;;5042275;28;20033;-73
2022/03/18 04:19:25;;;;;;;14.55;12.10;;;11.20;99.90;;;;;;5044597;28;20557;-72
2022/03/18 04:21:51;;;;;;;20.30;12.27;;;11.20;99.90;;;;;;5039635;28;20033;-71
2022/03/18 04:24:17;;;;;;;20.33;11.63;;;11.10;99.90;;;;;;5045003;28;20372;-71
2022/03/18 04:26:43;;;;;;;17.85;12.48;;;11.10;99.90;;;;;;5041749;28;20025;-71
2022/03/18 04:29:10;;;;;;;13.13;11.73;;;11.10;99.90;;;;;;5040078;28;20068;-71
2022/03/18 04:31:36;;;;;;;27.52;11.25;;;11.10;99.90;;;;;;5042606;28;20468;-70
2022/03/18 04:34:02;;;;;;;22.58;13.95;;;11.10;99.90;;;;;;5043885;28;20036;-70
2022/03/18 04:36:28;;;;;;;19.35;14.20;;;11.10;99.90;;;;;;5044838;28;20033;-71
2022/03/18 04:38:54;;;;;;;15.23;10.82;;;11.10;99.90;;;;;;5041091;28;20040;-71
2022/03/18 04:41:20;;;;;;;37.05;11.95;;;11.00;99.90;;;;;;5040760;28;20072;-72
2022/03/18 04:43:46;;;;;;;19.70;13.18;;;11.00;99.90;;;;;;5045692;28;20471;-72
2022/03/18 04:46:12;;;;;;;14.18;12.70;;;11.00;99.90;;;;;;5043493;28;20359;-72
2022/03/18 04:48:37;;;;;;;17.80;13.30;;;11.00;99.90;;;;;;5040619;28;20097;-71
2022/03/18 04:51:19;;;;;;;18.98;12.77;;;10.90;99.90;;;;;;5044406;28;20037;-72
2022/03/18 04:53:46;;;;;;;13.35;11.95;;;10.90;99.90;;;;;;5041218;28;20055;-74
2022/03/18 04:58:58;;;;;;;14.93;12.45;;;10.80;99.90;;;;;;5046723;28;20044;-71
2022/03/18 05:01:23;;;;;;;13.48;12.05;;;10.80;99.90;;;;;;5042649;28;20025;-71
2022/03/18 05:03:49;;;;;;;13.70;11.30;;;10.80;99.90;;;;;;5041180;28;20380;-70
2022/03/18 05:06:15;;;;;;;16.83;10.35;;;10.70;99.90;;;;;;5039031;28;20030;-69
2022/03/18 05:08:41;;;;;;;13.85;8.65;;;10.80;99.90;;;;;;5030718;28;20030;-71
2022/03/18 05:11:06;;;;;;;12.60;10.52;;;10.70;99.90;;;;;;5039314;28;20078;-71
2022/03/18 05:13:32;;;;;;;18.63;10.75;;;10.70;99.90;;;;;;5042998;28;20022;-73
2022/03/18 05:15:58;;;;;;;13.52;10.77;;;10.70;99.90;;;;;;5042912;28;20394;-70
2022/03/18 05:18:24;;;;;;;11.32;10.15;;;10.70;99.90;;;;;;5048517;28;20032;-71
2022/03/18 05:20:50;;;;;;;13.65;12.23;;;10.70;99.90;;;;;;5047663;28;20040;-70
2022/03/18 05:23:40;;;;;;;11.80;9.95;;;10.70;99.90;;;;;;5050349;28;20203;-74
2022/03/18 05:26:14;;;;;;;17.15;12.60;;;10.60;99.90;;;;;;5044987;28;20059;-72
2022/03/18 05:28:41;;;;;;;18.70;11.05;;;10.70;99.90;;;;;;5049060;28;20025;-71
2022/03/18 05:31:07;;;;;;;12.77;11.50;;;10.60;99.90;;;;;;5042175;28;20079;-73
2022/03/18 05:33:34;;;;;;;12.25;10.90;;;10.60;99.90;;;;;;5047038;28;20026;-72
2022/03/18 05:35:59;;;;;;;25.30;9.82;;;10.50;99.90;;;;;;5049570;28;20073;-72
2022/03/18 05:38:25;;;;;;;13.73;11.07;;;10.60;99.90;;;;;;5044757;28;20048;-71
2022/03/18 05:40:53;;;;;;;22.40;11.68;;;10.60;99.90;;;;;;5043717;28;20043;-70
2022/03/18 05:43:19;;;;;;;18.67;9.45;;;10.60;99.90;;;;;;5047604;28;20048;-66
2022/03/18 05:45:45;;;;;;;21.55;9.98;;;10.70;99.90;;;;;;5046826;28;20186;-66
2022/03/18 05:48:12;;;;;;;11.65;10.52;;;10.60;99.90;;;;;;5039372;28;20029;-66
2022/03/18 05:50:38;;;;;;;14.38;10.57;;;10.70;99.90;;;;;;5043417;28;20037;-67
2022/03/18 05:53:04;;;;;;;17.25;10.50;;;10.70;99.90;;;;;;5044230;28;20339;-65
2022/03/18 05:56:52;;;;;;;20.73;10.82;;;10.70;99.90;;;;;;5040722;28;20025;-68
2022/03/18 05:58:19;;;;;;;15.40;10.27;;;10.60;99.90;;;;;;5040597;28;20040;-66
2022/03/18 06:00:45;;;;;;;19.60;9.73;;;10.60;99.90;;;;;;5046478;28;20036;-66
2022/03/18 06:03:14;;;;;;;23.40;10.52;;;10.60;99.90;;;;;;5042720;28;20063;-66
2022/03/18 06:05:42;;;;;;;13.32;9.05;;;10.70;99.90;;;;;;5042115;28;20491;-67
2022/03/18 06:13:38;;;;;;;17.10;9.98;;;10.70;99.90;;;;;;5036172;28;20023;-65
2022/03/18 06:16:05;;;;;;;13.90;11.45;;;10.70;99.90;;;;;;5041983;28;20143;-66
2022/03/18 06:18:30;;;;;;;14.10;12.63;;;10.70;99.90;;;;;;5044750;28;20080;-65
2022/03/18 06:21:06;;;;;;;17.95;10.68;;;10.70;99.90;;;;;;5050659;28;20048;-66
2022/03/18 06:23:34;;;;;;;11.00;9.98;;;10.70;99.90;;;;;;5042470;28;20029;-66
2022/03/18 06:26:02;;;;;;;13.90;12.50;;;10.70;99.90;;;;;;5060186;28;20033;-65
2022/03/18 06:28:28;;;;;;;11.18;9.80;;;10.60;99.90;;;;;;5048718;28;20036;-66
2022/03/18 06:31:09;;;;;;;11.25;10.07;;;10.60;99.90;;;;;;5053003;28;20442;-66
2022/03/18 06:33:54;;;;;;;18.25;14.23;;;10.60;99.90;;;;;;5040134;28;20032;-66
2022/03/18 06:36:23;;;;;;;15.20;12.52;;;10.70;99.90;;;;;;5049355;28;20111;-66
2022/03/18 06:38:49;;;;;;;14.35;11.02;;;10.70;99.90;;;;;;5048451;28;20072;-66
2022/03/18 06:41:16;;;;;;;16.00;11.57;;;10.70;99.90;;;;;;5046769;28;20105;-67
2022/03/18 06:43:43;;;;;;;17.65;11.80;;;10.70;99.90;;;;;;5051579;28;20450;-66
2022/03/18 06:46:09;;;;;;;16.38;11.98;;;10.70;99.90;;;;;;5030078;28;20030;-67
2022/03/18 06:48:34;;;;;;;20.88;10.45;;;10.70;99.90;;;;;;5030308;28;20108;-66
2022/03/18 06:51:01;;;;;;;13.80;11.32;;;10.80;99.90;;;;;;5030061;28;20129;-65
2022/03/18 06:53:27;;;;;;;14.50;11.68;;;10.80;99.90;;;;;;5033971;28;20028;-66
2022/03/18 06:55:53;;;;;;;22.98;12.85;;;10.80;99.90;;;;;;5048910;28;20506;-65
2022/03/18 06:58:18;;;;;;;16.40;14.00;;;10.80;99.90;;;;;;5031811;28;20033;-66
2022/03/18 07:00:44;;;;;;;21.73;12.63;;;10.90;99.90;;;;;;5031243;28;20068;-66
2022/03/18 07:03:10;;;;;;;20.80;11.90;;;11.00;99.90;;;;;;5031289;28;20031;-65
2022/03/18 07:05:36;;;;;;;18.02;12.88;;;11.00;99.90;;;;;;5031164;28;20478;-65
2022/03/18 07:08:01;;;;;;;17.33;12.07;;;11.00;99.90;;;;;;5031585;28;20052;-65
2022/03/18 07:10:27;;;;;;;23.73;14.63;;;11.00;99.90;;;;;;5036482;28;20025;-66
2022/03/18 07:12:53;;;;;;;23.52;12.40;;;11.00;99.90;;;;;;5047693;28;20026;-66
2022/03/18 07:15:19;;;;;;;17.48;12.50;;;11.10;99.90;;;;;;5044939;28;20463;-65
2022/03/18 07:18:00;;;;;;;18.52;15.02;;;11.10;99.90;;;;;;5044046;28;20039;-66
2022/03/18 07:20:39;;;;;;;24.88;12.73;;;11.20;99.90;;;;;;5047419;28;20032;-65
2022/03/18 07:23:15;;;;;;;17.02;13.75;;;11.30;99.90;;;;;;5038884;28;20044;-67
2022/03/18 07:26:00;;;;;;;16.80;13.05;;;11.30;99.90;;;;;;5046279;28;20021;-66
2022/03/18 07:28:27;;;;;;;15.60;13.20;;;11.30;99.90;;;;;;5046163;28;20327;-66
2022/03/18 07:30:52;;;;;;;18.80;13.43;;;11.20;99.90;;;;;;5046868;28;20025;-65
2022/03/18 07:33:18;;;;;;;15.55;13.40;;;11.20;99.90;;;;;;5042213;28;20017;-66
2022/03/18 07:35:44;;;;;;;18.38;13.85;;;11.30;99.90;;;;;;5048579;28;20034;-65
2022/03/18 07:38:10;;;;;;;19.40;13.48;;;11.40;99.90;;;;;;5045521;28;20029;-66
2022/03/18 07:40:39;;;;;;;40.45;14.40;;;11.40;99.90;;;;;;5055370;28;20040;-65
2022/03/18 07:43:06;;;;;;;20.08;14.27;;;11.40;99.90;;;;;;5041066;28;20103;-66
2022/03/18 07:45:33;;;;;;;19.48;14.90;;;11.40;99.90;;;;;;5046546;28;20064;-66
2022/03/18 07:48:02;;;;;;;17.05;14.40;;;11.60;99.90;;;;;;5045432;28;20013;-66
2022/03/18 07:50:29;;;;;;;18.25;15.38;;;11.60;99.90;;;;;;5043442;28;20025;-66
2022/03/18 07:52:58;;;;;;;20.98;15.77;;;11.60;99.90;;;;;;5047048;28;20014;-67
2022/03/18 07:55:26;;;;;;;20.90;14.63;;;11.80;99.90;;;;;;5046177;28;20445;-67
2022/03/18 07:57:53;;;;;;;22.92;15.95;;;12.10;99.90;;;;;;5046343;28;20050;-67
2022/03/18 08:00:19;;;;;;;17.17;14.90;;;12.20;99.90;;;;;;5043063;28;20022;-68
2022/03/18 08:02:47;;;;;;;15.10;13.50;;;12.10;99.90;;;;;;5046438;28;20068;-68
2022/03/18 08:05:20;;;;;;;21.23;15.73;;;12.20;99.90;;;;;;5042931;28;20112;-67
2022/03/18 08:07:49;;;;;;;23.17;14.95;;;12.40;99.90;;;;;;5054802;28;20060;-66
2022/03/18 08:10:17;;;;;;;18.67;15.13;;;12.60;99.90;;;;;;5071311;28;20059;-67
2022/03/18 08:12:46;;;;;;;17.38;15.00;;;12.50;99.90;;;;;;5071314;28;20367;-67
2022/03/18 08:15:16;;;;;;;19.45;14.82;;;12.50;99.90;;;;;;5062009;28;20087;-67
2022/03/18 08:17:43;;;;;;;16.90;14.35;;;12.40;99.90;;;;;;5042360;28;20057;-66
2022/03/18 08:20:13;;;;;;;17.02;13.23;;;12.60;99.90;;;;;;5035962;28;20479;-66
2022/03/18 08:22:40;;;;;;;20.10;15.80;;;12.70;99.90;;;;;;5050164;28;20358;-66
2022/03/18 08:25:08;;;;;;;14.82;13.27;;;12.60;99.90;;;;;;5050843;28;20029;-65
2022/03/18 08:27:34;;;;;;;15.02;13.10;;;12.80;99.90;;;;;;5050633;28;20025;-65
2022/03/18 08:30:01;;;;;;;15.50;13.80;;;13.00;99.90;;;;;;5049840;28;20071;-66
2022/03/18 08:32:28;;;;;;;18.83;13.23;;;12.90;99.90;;;;;;5048032;28;20491;-67
2022/03/18 08:34:54;;;;;;;16.02;12.85;;;12.90;99.90;;;;;;5034024;28;20044;-67
2022/03/18 08:37:56;;;;;;;15.35;13.30;;;12.70;99.90;;;;;;5038418;28;20025;-66
2022/03/18 08:40:06;;;;;;;13.38;12.02;;;12.50;99.90;;;;;;5044812;28;20451;-66
2022/03/18 08:42:34;;;;;;;14.20;12.70;;;12.60;99.90;;;;;;5035632;28;20115;-67
2022/03/18 08:45:00;;;;;;;16.63;12.40;;;12.70;99.90;;;;;;5030947;28;20050;-66
2022/03/18 08:47:27;;;;;;;17.10;11.07;;;12.90;99.90;;;;;;5041757;28;20021;-66
2022/03/18 08:49:53;;;;;;;18.75;11.93;;;13.00;99.90;;;;;;5053896;28;20027;-66
2022/03/18 08:52:19;;;;;;;18.30;12.00;;;13.10;99.90;;;;;;5046742;28;20367;-67
2022/03/18 08:54:45;;;;;;;17.08;11.93;;;12.80;99.90;;;;;;5050478;28;20037;-66
2022/03/18 08:57:14;;;;;;;14.00;12.35;;;12.70;99.90;;;;;;5050546;28;20025;-66
2022/03/18 08:59:40;;;;;;;16.70;12.15;;;12.70;99.90;;;;;;5054884;28;20530;-67
2022/03/18 09:02:06;;;;;;;17.40;13.30;;;12.70;99.90;;;;;;5049832;28;20044;-65
2022/03/18 09:04:31;;;;;;;22.45;12.50;;;12.70;99.90;;;;;;5039815;28;20030;-66
2022/03/18 09:06:57;;;;;;;15.80;11.15;;;12.60;99.90;;;;;;5037727;28;20037;-66
2022/03/18 09:09:23;;;;;;;13.68;12.30;;;12.40;99.90;;;;;;5053486;28;20071;-66
2022/03/18 09:11:49;;;;;;;14.25;11.57;;;12.50;99.90;;;;;;5053884;28;20025;-65
2022/03/18 09:14:14;;;;;;;15.50;13.35;;;12.40;99.90;;;;;;5049259;28;20025;-65
2022/03/18 09:16:40;;;;;;;16.10;11.77;;;12.30;99.90;;;;;;5051915;28;20123;-66
2022/03/18 09:19:07;;;;;;;18.80;13.25;;;12.40;99.90;;;;;;5052880;28;20094;-65
2022/03/18 09:21:34;;;;;;;18.45;12.13;;;12.40;99.90;;;;;;5026558;28;20628;-66
2022/03/18 09:24:01;;;;;;;12.50;10.57;;;12.40;99.90;;;;;;5046351;28;20029;-66
2022/03/18 09:26:27;;;;;;;16.52;14.73;;;12.40;99.90;;;;;;5050640;28;20031;-66
2022/03/18 09:28:54;;;;;;;12.77;10.90;;;12.30;99.90;;;;;;5043617;28;20423;-66
2022/03/18 09:31:19;;;;;;;14.57;11.32;;;12.30;99.90;;;;;;5039310;28;20022;-66
2022/03/18 09:33:46;;;;;;;27.95;12.50;;;12.30;99.90;;;;;;5039740;28;20499;-67
2022/03/18 09:36:17;;;;;;;15.93;11.38;;;12.20;99.90;;;;;;5041245;28;20463;-67
2022/03/18 09:38:43;;;;;;;14.70;11.45;;;12.40;99.90;;;;;;5043371;28;20467;-66
2022/03/18 09:41:09;;;;;;;21.88;12.68;;;12.60;99.90;;;;;;5038623;28;20036;-67
2022/03/18 09:43:37;;;;;;;11.00;9.90;;;12.60;99.90;;;;;;5042875;28;20021;-66
2022/03/18 09:46:04;;;;;;;14.73;12.43;;;12.60;99.90;;;;;;5043916;28;20029;-66
2022/03/18 09:48:31;;;;;;;16.13;12.35;;;12.50;99.90;;;;;;5044197;28;20083;-66
2022/03/18 09:50:57;;;;;;;30.05;13.73;;;12.60;99.90;;;;;;5046552;28;20121;-65
2022/03/18 09:53:22;;;;;;;17.73;11.30;;;12.60;99.90;;;;;;5043134;28;20032;-66
2022/03/18 09:55:51;;;;;;;20.25;11.60;;;12.60;99.90;;;;;;5040229;28;20693;-66
2022/03/18 09:58:18;;;;;;;16.20;13.52;;;12.60;99.90;;;;;;5039092;28;20025;-65
2022/03/18 10:00:46;;;;;;;16.13;14.38;;;12.70;99.90;;;;;;5041355;28;20491;-66
2022/03/18 10:03:16;;;;;;;15.07;12.35;;;12.70;99.90;;;;;;5045868;28;20107;-66
2022/03/18 10:05:59;;;;;;;18.17;12.68;;;12.60;99.90;;;;;;5044661;28;20021;-66
2022/03/18 10:08:45;;;;;;;28.88;14.73;;;12.70;99.90;;;;;;5043902;28;20127;-66
2022/03/18 10:11:21;;;;;;;18.35;14.30;;;12.70;99.90;;;;;;5049042;28;20079;-65
2022/03/18 10:14:01;;;;;;;14.73;10.57;;;12.90;99.90;;;;;;5041804;28;20120;-66
2022/03/18 10:16:34;;;;;;;15.00;11.85;;;12.90;99.90;;;;;;5045512;28;20029;-65
2022/03/18 10:19:02;;;;;;;15.07;11.82;;;12.80;99.90;;;;;;5045775;28;20044;-66
2022/03/18 10:21:29;;;;;;;13.73;11.85;;;12.80;99.90;;;;;;5046773;28;20112;-65
2022/03/18 10:24:09;;;;;;;29.48;14.73;;;12.70;99.90;;;;;;5041579;28;20037;-66
2022/03/18 10:26:39;;;;;;;18.00;13.77;;;12.80;99.90;;;;;;5047196;28;20028;-65
2022/03/18 10:29:05;;;;;;;19.92;14.23;;;12.90;99.90;;;;;;5040854;28;20021;-65
2022/03/18 10:31:32;;;;;;;14.38;12.75;;;12.90;99.90;;;;;;5037568;28;20033;-65
2022/03/18 10:39:40;;;;;;;20.38;14.07;;;13.00;99.90;;;;;;5044081;28;20493;-67
2022/03/18 10:42:09;;;;;;;16.60;13.45;;;13.00;99.90;;;;;;5043695;28;20021;-66
2022/03/18 10:44:59;;;;;;;15.30;12.60;;;13.10;99.90;;;;;;5041633;28;20037;-66
2022/03/18 10:47:35;;;;;;;15.00;11.07;;;13.20;99.90;;;;;;5041191;28;20107;-65
2022/03/18 10:50:10;;;;;;;15.48;12.85;;;13.20;99.90;;;;;;5038509;28;20013;-66
2022/03/18 10:52:36;;;;;;;15.57;13.43;;;13.30;99.90;;;;;;5036979;28;20537;-65
2022/03/18 10:55:28;;;;;;;17.67;13.45;;;13.30;99.90;;;;;;5045552;28;20407;-66
2022/03/18 10:58:01;;;;;;;;;;;13.30;99.90;;;;;;5041450;28;20402;-65
2022/03/18 11:00:30;;;;;;;12.52;11.23;;;13.30;99.90;;;;;;5038832;28;19948;-66
2022/03/18 11:03:01;;;;;;;16.05;12.18;;;13.40;99.90;;;;;;5044603;28;20029;-66
2022/03/18 11:05:47;;;;;;;15.50;13.27;;;13.30;99.90;;;;;;5048066;28;20025;-66
2022/03/18 11:08:16;;;;;;;21.75;12.73;;;13.40;99.90;;;;;;5037925;28;20021;-66
2022/03/18 11:13:47;;;;;;;15.95;11.18;;;13.60;99.90;;;;;;5037924;28;20032;-65
2022/03/18 11:16:16;;;;;;;18.02;12.38;;;13.70;99.90;;;;;;5043776;28;20024;-66
2022/03/18 11:18:43;;;;;;;15.00;12.82;;;13.70;99.90;;;;;;5039075;28;20522;-66
2022/03/18 11:21:10;;;;;;;17.27;15.48;;;13.90;99.90;;;;;;5041146;28;20026;-65
2022/03/18 11:23:39;;;;;;;17.80;15.10;;;14.00;99.90;;;;;;5042506;28;20033;-65
2022/03/18 11:26:06;;;;;;;19.75;15.88;;;14.10;99.90;;;;;;5037472;28;20724;-65
2022/03/18 11:28:32;;;;;;;25.77;16.17;;;14.00;99.90;;;;;;5038560;28;20021;-65
2022/03/18 11:31:03;;;;;;;15.43;12.52;;;14.00;99.90;;;;;;5048753;28;20037;-66
2022/03/18 11:33:29;;;;;;;20.30;12.30;;;14.10;99.90;;;;;;5043829;28;20392;-67
2022/03/18 11:35:55;;;;;;;14.02;12.55;;;14.10;99.90;;;;;;5050129;28;20032;-65
2022/03/18 11:38:23;;;;;;;15.52;12.60;;;13.80;99.90;;;;;;5042438;28;20397;-67
2022/03/18 11:41:01;;;;;;;13.25;11.95;;;14.00;99.90;;;;;;5041555;28;20028;-65
2022/03/18 11:43:33;;;;;;;15.80;12.88;;;14.10;99.90;;;;;;5025259;28;20029;-66
2022/03/18 11:46:16;;;;;;;18.40;11.48;;;14.10;99.90;;;;;;5042444;28;20353;-66
2022/03/18 11:48:51;;;;;;;15.85;11.82;;;13.90;99.90;;;;;;5039344;28;20069;-65
2022/03/18 11:51:31;;;;;;;15.15;13.25;;;13.90;99.90;;;;;;5041291;28;20021;-67
2022/03/18 11:54:10;;;;;;;20.73;14.40;;;14.00;99.90;;;;;;5036435;28;20047;-67
2022/03/18 11:56:45;;;;;;;14.65;10.15;;;14.00;99.90;;;;;;5039595;28;20024;-67
2022/03/18 11:59:28;;;;;;;10.70;9.68;;;14.20;99.90;;;;;;5037264;28;20021;-66
2022/03/18 12:02:09;;;;;;;15.32;10.70;;;14.10;99.90;;;;;;5035136;28;20101;-68
2022/03/18 12:04:39;;;;;;;11.88;10.63;;;14.10;99.90;;;;;;5043223;28;20032;-66
2022/03/18 12:07:34;;;;;;;12.68;11.40;;;13.80;99.90;;;;;;5045711;28;20507;-68
2022/03/18 12:10:08;;;;;;;14.02;12.43;;;13.90;99.90;;;;;;5042573;28;20033;-66
2022/03/18 12:12:37;;;;;;;11.65;10.43;;;14.00;99.90;;;;;;5043170;28;20546;-68
2022/03/18 12:15:29;;;;;;;21.55;12.68;;;14.10;99.90;;;;;;5044305;28;20025;-66
2022/03/18 12:17:57;;;;;;;14.05;11.77;;;14.20;99.90;;;;;;5047749;28;20037;-66
2022/03/18 12:20:31;;;;;;;14.90;10.77;;;14.20;99.90;;;;;;5049764;28;20111;-67
2022/03/18 12:23:23;;;;;;;13.43;12.13;;;14.30;99.90;;;;;;5049382;28;20036;-66
2022/03/18 12:26:06;;;;;;;14.60;11.05;;;14.40;99.90;;;;;;5043046;28;20354;-67
2022/03/18 12:28:46;;;;;;;13.10;11.80;;;14.20;99.90;;;;;;5041135;28;20026;-66
2022/03/18 12:31:16;;;;;;;14.70;10.18;;;14.20;99.90;;;;;;5032766;28;20036;-66
2022/03/18 12:33:41;;;;;;;13.65;10.25;;;14.30;99.90;;;;;;5047756;28;20127;-66
2022/03/18 12:36:08;;;;;;;13.25;10.30;;;14.30;99.90;;;;;;5052681;28;20458;-68
2022/03/18 12:38:35;;;;;;;12.98;11.25;;;14.30;99.90;;;;;;5053243;28;20037;-67
2022/03/18 12:41:01;;;;;;;11.05;9.98;;;14.40;99.90;;;;;;5043487;28;20389;-67
2022/03/18 12:43:31;;;;;;;14.80;11.25;;;14.50;99.90;;;;;;5041672;28;20033;-66
2022/03/18 12:45:58;;;;;;;14.27;11.38;;;14.40;99.90;;;;;;5052795;28;20039;-67
2022/03/18 12:48:24;;;;;;;10.82;8.85;;;14.40;99.90;;;;;;5054029;28;20033;-66
2022/03/18 12:50:55;;;;;;;11.48;9.25;;;14.40;99.90;;;;;;5053548;28;20063;-66
2022/03/18 12:53:34;;;;;;;12.60;10.90;;;14.30;99.90;;;;;;5052282;28;20100;-66
2022/03/18 12:56:11;;;;;;;16.48;11.50;;;14.20;99.90;;;;;;5053858;28;20057;-67
2022/03/18 12:58:40;;;;;;;10.23;9.18;;;14.20;99.90;;;;;;5052002;28;20087;-66
2022/03/18 13:01:08;;;;;;;12.35;10.93;;;14.30;99.90;;;;;;5052797;28;20021;-65